KLJF

Litchfield Municipal Airport

Litchfield, Minnesota, USA
METAR KLJF 170015Z AUTO 04005KT 7SM BKN010 OVC014 M03/M03 A3003 RMK AO2
Observed Flight Rules
Dec-17 @ 00:15 UTC (17 minutes ago) Marginal Visual Flight Rules
Wind Visibility Clouds
40° at 5 knots 7 miles
  • Broken at 1,000' AGL
  • Overcast at 1,400' AGL
Temperatures Readings
Current -3°C / 27°F
Dewpoint -3°C / 27°F
Humidity 100%
Altimeter 30.03" Hg
Pressure 1017 hPa
Elevation 348
METAR KLJF 170015Z AUTO 04005KT 7SM BKN010 OVC014 M03/M03 A3003 RMK AO2
Observed Flight Rules
Dec-17 @ 00:15 UTC
(17 minutes ago)
MVFR
Wind Visibility
40° at 5 knots 7 miles
Clouds
  • Broken at 1,000' AGL
  • Overcast at 1,400' AGL
Temperature Dewpoint
-3°C / 27°F -3°C / 27°F
Humidity Altimeter Pressure
100% 30.03" Hg 1017 hPa